sensor_id;sensor_type;location;lat;lon;timestamp;pressure;altitude;pressure_sealevel;temperature;humidity
70781;BME280;72716;48.814;2.126;2024-02-14T13:03:53;100550.91;;;13.01;100.00
70781;BME280;72716;48.814;2.126;2024-02-14T13:06:18;100534.25;;;13.05;100.00
70781;BME280;72716;48.814;2.126;2024-02-14T13:08:44;100526.22;;;13.18;100.00
70781;BME280;72716;48.814;2.126;2024-02-14T13:11:09;100533.13;;;13.28;100.00
70781;BME280;72716;48.814;2.126;2024-02-14T13:13:35;100531.50;;;13.15;100.00
70781;BME280;72716;48.814;2.126;2024-02-14T13:16:01;100528.06;;;13.13;100.00
70781;BME280;72716;48.814;2.126;2024-02-14T13:18:26;100548.22;;;13.06;100.00
70781;BME280;72716;48.814;2.126;2024-02-14T13:20:52;100524.50;;;13.17;100.00
70781;BME280;72716;48.814;2.126;2024-02-14T13:23:24;100522.69;;;13.22;100.00
70781;BME280;72716;48.814;2.126;2024-02-14T13:25:50;100526.22;;;13.18;100.00
70781;BME280;72716;48.814;2.126;2024-02-14T13:28:15;100513.06;;;13.22;100.00
70781;BME280;72716;48.814;2.126;2024-02-14T13:30:40;100526.25;;;13.19;100.00
70781;BME280;72716;48.814;2.126;2024-02-14T13:33:06;100522.81;;;13.09;100.00
70781;BME280;72716;48.814;2.126;2024-02-14T13:35:31;100514.91;;;13.14;100.00
70781;BME280;72716;48.814;2.126;2024-02-14T13:37:57;100521.03;;;13.11;100.00
70781;BME280;72716;48.814;2.126;2024-02-14T13:40:23;100515.72;;;13.18;100.00
70781;BME280;72716;48.814;2.126;2024-02-14T13:42:49;100514.03;;;13.14;100.00
70781;BME280;72716;48.814;2.126;2024-02-14T13:45:14;100507.66;;;13.37;100.00
70781;BME280;72716;48.814;2.126;2024-02-14T13:47:41;100514.41;;;13.61;100.00
70781;BME280;72716;48.814;2.126;2024-02-14T13:50:10;100508.88;;;13.84;100.00
70781;BME280;72716;48.814;2.126;2024-02-14T13:52:36;100510.06;;;13.58;100.00
70781;BME280;72716;48.814;2.126;2024-02-14T13:55:04;100512.41;;;13.82;100.00
70781;BME280;72716;48.814;2.126;2024-02-14T13:57:31;100505.50;;;13.73;100.00
70781;BME280;72716;48.814;2.126;2024-02-14T13:59:57;100509.13;;;13.66;100.00
70781;BME280;72716;48.814;2.126;2024-02-14T14:02:22;100495.22;;;13.51;100.00
70781;BME280;72716;48.814;2.126;2024-02-14T14:04:48;100498.72;;;13.55;100.00
70781;BME280;72716;48.814;2.126;2024-02-14T14:07:14;100490.94;;;13.42;100.00
70781;BME280;72716;48.814;2.126;2024-02-14T14:09:39;100495.34;;;13.42;100.00
70781;BME280;72716;48.814;2.126;2024-02-14T14:12:05;100486.47;;;13.49;100.00
70781;BME280;72716;48.814;2.126;2024-02-14T14:14:30;100482.91;;;13.56;100.00
70781;BME280;72716;48.814;2.126;2024-02-14T14:16:56;100483.63;;;13.71;100.00
70781;BME280;72716;48.814;2.126;2024-02-14T14:19:22;100485.34;;;13.72;100.00
70781;BME280;72716;48.814;2.126;2024-02-14T14:21:48;100487.19;;;13.67;100.00
70781;BME280;72716;48.814;2.126;2024-02-14T14:24:14;100488.75;;;13.80;100.00
70781;BME280;72716;48.814;2.126;2024-02-14T14:26:40;100477.94;;;14.02;100.00
70781;BME280;72716;48.814;2.126;2024-02-14T14:29:06;100489.50;;;13.90;100.00
70781;BME280;72716;48.814;2.126;2024-02-14T14:31:31;100478.56;;;14.20;100.00
70781;BME280;72716;48.814;2.126;2024-02-14T14:33:58;100481.25;;;14.17;100.00
70781;BME280;72716;48.814;2.126;2024-02-14T14:36:24;100477.94;;;14.04;100.00
70781;BME280;72716;48.814;2.126;2024-02-14T14:38:49;100476.31;;;13.95;100.00
70781;BME280;72716;48.814;2.126;2024-02-14T14:41:15;100486.06;;;13.85;100.00
70781;BME280;72716;48.814;2.126;2024-02-14T14:43:40;100477.34;;;13.83;100.00
70781;BME280;72716;48.814;2.126;2024-02-14T14:46:05;100480.81;;;13.83;100.00
70781;BME280;72716;48.814;2.126;2024-02-14T14:48:31;100477.41;;;13.77;100.00
70781;BME280;72716;48.814;2.126;2024-02-14T14:50:56;100475.66;;;13.77;100.00
70781;BME280;72716;48.814;2.126;2024-02-14T14:53:22;100478.34;;;13.74;100.00
70781;BME280;72716;48.814;2.126;2024-02-14T14:55:50;100480.09;;;13.72;100.00
70781;BME280;72716;48.814;2.126;2024-02-14T14:58:16;100478.34;;;13.73;100.00
70781;BME280;72716;48.814;2.126;2024-02-14T15:00:42;100474.88;;;13.69;100.00
70781;BME280;72716;48.814;2.126;2024-02-14T15:03:08;100478.47;;;13.62;100.00
70781;BME280;72716;48.814;2.126;2024-02-14T15:05:33;100475.97;;;13.54;100.00
70781;BME280;72716;48.814;2.126;2024-02-14T15:07:59;100480.38;;;13.48;100.00
70781;BME280;72716;48.814;2.126;2024-02-14T15:10:24;100484.78;;;13.46;100.00
70781;BME280;72716;48.814;2.126;2024-02-14T15:12:49;100490.06;;;13.43;100.00
70781;BME280;72716;48.814;2.126;2024-02-14T15:15:15;100484.72;;;13.50;100.00
70781;BME280;72716;48.814;2.126;2024-02-14T15:17:41;100486.44;;;13.51;100.00
70781;BME280;72716;48.814;2.126;2024-02-14T15:20:07;100479.47;;;13.53;100.00
70781;BME280;72716;48.814;2.126;2024-02-14T15:22:32;100482.97;;;13.50;100.00
70781;BME280;72716;48.814;2.126;2024-02-14T15:24:58;100490.84;;;13.53;100.00
70781;BME280;72716;48.814;2.126;2024-02-14T15:27:24;100490.81;;;13.56;100.00
70781;BME280;72716;48.814;2.126;2024-02-14T15:29:52;100489.03;;;13.60;100.00
70781;BME280;72716;48.814;2.126;2024-02-14T15:32:36;100493.38;;;13.61;100.00
70781;BME280;72716;48.814;2.126;2024-02-14T15:35:20;100481.09;;;13.62;100.00
70781;BME280;72716;48.814;2.126;2024-02-14T15:37:46;100487.25;;;13.62;100.00
70781;BME280;72716;48.814;2.126;2024-02-14T15:40:14;100483.75;;;13.60;100.00
70781;BME280;72716;48.814;2.126;2024-02-14T15:42:41;100494.28;;;13.58;100.00
